Time,TemperatureF,DewpointF,PressureIn,WindDirection,WindDirectionDegrees,WindSpeedMPH,WindSpeedGustMPH,Humidity,HourlyPrecipIn,Conditions,Clouds,dailyrainin,SoftwareType,DateUTC
2013-05-08 00:01:00,62.3,51.6,29.86,SSW,192,0.0,0.0,68,0.00,CLR,,0.00,WeatherDisplay:10.37,2013-05-08 05:01:00,
2013-05-08 00:06:00,62.1,51.4,29.85,SSW,193,0.0,0.0,68,0.00,CLR,,0.00,WeatherDisplay:10.37,2013-05-08 05:06:00,
2013-05-08 00:11:00,62.0,51.3,29.86,SSW,193,1.2,1.2,68,0.00,CLR,,0.00,WeatherDisplay:10.37,2013-05-08 05:11:00,
2013-05-08 00:16:00,61.9,51.2,29.86,SSW,193,0.0,0.1,68,0.00,CLR,,0.00,WeatherDisplay:10.37,2013-05-08 05:16:00,
2013-05-08 00:21:00,61.9,51.2,29.86,SSW,193,0.0,0.0,68,0.00,CLR,,0.00,WeatherDisplay:10.37,2013-05-08 05:21:00,
2013-05-08 00:26:00,61.9,51.2,29.86,SSW,192,0.0,0.0,68,0.00,CLR,,0.00,WeatherDisplay:10.37,2013-05-08 05:26:00,
2013-05-08 00:31:00,61.8,51.1,29.85,SSW,192,0.0,0.3,68,0.00,CLR,,0.00,WeatherDisplay:10.37,2013-05-08 05:31:00,
2013-05-08 00:36:00,61.7,51.4,29.85,SSW,193,2.3,2.3,69,0.00,CLR,,0.00,WeatherDisplay:10.37,2013-05-08 05:36:00,
2013-05-08 00:41:00,61.5,51.2,29.85,SSW,193,1.2,0.0,69,0.00,CLR,,0.00,WeatherDisplay:10.37,2013-05-08 05:41:00,
2013-05-08 00:46:00,61.5,51.2,29.85,SSW,192,1.2,0.0,69,0.00,CLR,,0.00,WeatherDisplay:10.37,2013-05-08 05:46:00,
2013-05-08 00:51:00,61.4,51.1,29.86,SSW,193,0.0,0.0,69,0.00,CLR,,0.00,WeatherDisplay:10.37,2013-05-08 05:51:00,
2013-05-08 00:56:00,61.4,51.1,29.86,SSW,193,0.0,0.0,69,0.00,CLR,,0.00,WeatherDisplay:10.37,2013-05-08 05:56:00,
2013-05-08 01:01:00,61.3,51.0,29.86,SSW,192,0.0,0.0,69,0.00,CLR,,0.00,WeatherDisplay:10.37,2013-05-08 06:01:00,
2013-05-08 01:06:00,61.3,51.0,29.86,SSW,192,0.0,0.0,69,0.00,CLR,,0.00,WeatherDisplay:10.37,2013-05-08 06:06:00,
2013-05-08 01:11:00,61.2,51.3,29.86,SSW,193,1.2,1.2,70,0.00,CLR,,0.00,WeatherDisplay:10.37,2013-05-08 06:11:00,
2013-05-08 01:16:00,61.1,51.2,29.86,SSW,193,3.5,3.5,70,0.00,CLR,,0.00,WeatherDisplay:10.37,2013-05-08 06:16:00,
2013-05-08 01:21:00,61.3,51.4,29.86,SSW,193,0.0,0.3,70,0.00,CLR,,0.00,WeatherDisplay:10.37,2013-05-08 06:21:00,
2013-05-08 01:26:00,61.3,51.4,29.85,SSW,193,0.0,0.0,70,0.00,CLR,,0.00,WeatherDisplay:10.37,2013-05-08 06:26:00,
2013-05-08 01:31:00,61.2,51.3,29.85,SSW,193,2.3,2.3,70,0.00,CLR,,0.00,WeatherDisplay:10.37,2013-05-08 06:31:00,
2013-05-08 01:36:00,61.1,51.2,29.85,SSW,193,2.3,2.3,70,0.00,CLR,,0.00,WeatherDisplay:10.37,2013-05-08 06:36:00,
2013-05-08 01:41:00,61.1,51.2,29.85,SSW,193,1.2,1.2,70,0.00,CLR,,0.00,WeatherDisplay:10.37,2013-05-08 06:41:00,
2013-05-08 01:46:00,61.1,51.2,29.85,SSW,193,1.2,0.0,70,0.00,CLR,,0.00,WeatherDisplay:10.37,2013-05-08 06:46:00,
2013-05-08 01:51:00,61.0,51.5,29.85,SSW,192,1.2,1.2,71,0.00,CLR,,0.00,WeatherDisplay:10.37,2013-05-08 06:51:00,
2013-05-08 01:56:00,60.9,51.4,29.85,SSW,193,0.0,0.0,71,0.00,CLR,,0.00,WeatherDisplay:10.37,2013-05-08 06:56:00,
2013-05-08 02:01:00,60.9,51.4,29.85,SSW,193,2.3,2.3,71,0.00,CLR,,0.00,WeatherDisplay:10.37,2013-05-08 07:01:00,
2013-05-08 02:06:00,60.9,51.4,29.85,SSW,193,0.0,0.0,71,0.00,CLR,,0.00,WeatherDisplay:10.37,2013-05-08 07:06:00,
2013-05-08 02:11:00,60.9,51.4,29.85,SSW,193,0.0,0.0,71,0.00,CLR,,0.00,WeatherDisplay:10.37,2013-05-08 07:11:00,
2013-05-08 02:16:00,60.9,51.4,29.85,SSW,193,0.0,0.0,71,0.00,CLR,,0.00,WeatherDisplay:10.37,2013-05-08 07:16:00,
2013-05-08 02:21:00,60.8,51.3,29.85,SSW,193,0.0,0.0,71,0.00,CLR,,0.00,WeatherDisplay:10.37,2013-05-08 07:21:00,
2013-05-08 02:26:00,60.6,51.5,29.85,SSW,193,0.0,0.0,72,0.00,CLR,,0.00,WeatherDisplay:10.37,2013-05-08 07:26:00,
2013-05-08 02:31:00,60.5,51.4,29.84,SSW,193,0.0,0.0,72,0.00,CLR,,0.00,WeatherDisplay:10.37,2013-05-08 07:31:00,
2013-05-08 02:36:00,60.5,51.4,29.84,SSW,193,0.0,0.0,72,0.00,CLR,,0.00,WeatherDisplay:10.37,2013-05-08 07:36:00,
2013-05-08 02:41:00,60.5,51.4,29.84,SSW,193,1.2,1.2,72,0.00,CLR,,0.00,WeatherDisplay:10.37,2013-05-08 07:41:00,
2013-05-08 02:46:00,60.5,51.4,29.84,SSW,193,0.0,0.0,72,0.00,CLR,,0.00,WeatherDisplay:10.37,2013-05-08 07:46:00,
2013-05-08 02:51:00,60.5,51.4,29.84,SSW,192,0.0,0.0,72,0.00,CLR,,0.00,WeatherDisplay:10.37,2013-05-08 07:51:00,
2013-05-08 02:56:00,60.5,51.4,29.85,SSW,192,0.0,0.0,72,0.00,CLR,,0.00,WeatherDisplay:10.37,2013-05-08 07:56:00,
2013-05-08 03:01:00,60.6,51.5,29.85,SSW,193,0.0,0.0,72,0.00,CLR,,0.00,WeatherDisplay:10.37,2013-05-08 08:01:00,
2013-05-08 03:06:00,60.6,51.5,29.85,SSW,193,0.0,0.0,72,0.00,CLR,,0.00,WeatherDisplay:10.37,2013-05-08 08:06:00,
2013-05-08 03:11:00,60.6,51.5,29.85,SSW,193,0.0,0.0,72,0.00,CLR,,0.00,WeatherDisplay:10.37,2013-05-08 08:11:00,
2013-05-08 03:16:00,60.6,51.5,29.85,SSW,192,0.0,0.0,72,0.00,CLR,,0.00,WeatherDisplay:10.37,2013-05-08 08:16:00,
2013-05-08 03:21:00,60.5,51.8,29.86,SSW,193,0.0,0.0,73,0.00,CLR,,0.00,WeatherDisplay:10.37,2013-05-08 08:21:00,
2013-05-08 03:26:00,60.3,52.0,29.86,SSW,192,0.0,0.0,74,0.00,CLR,,0.00,WeatherDisplay:10.37,2013-05-08 08:26:00,
2013-05-08 03:31:00,60.2,51.9,29.86,SSW,193,0.0,0.0,74,0.00,CLR,,0.00,WeatherDisplay:10.37,2013-05-08 08:31:00,
2013-05-08 03:36:00,60.0,52.4,29.85,SSW,192,0.0,0.0,76,0.00,CLR,,0.00,WeatherDisplay:10.37,2013-05-08 08:36:00,
2013-05-08 03:41:00,59.8,52.2,29.85,SSW,193,0.0,0.0,76,0.00,CLR,,0.00,WeatherDisplay:10.37,2013-05-08 08:41:00,
2013-05-08 03:46:00,59.7,52.1,29.86,SSW,192,1.2,1.2,76,0.00,CLR,,0.00,WeatherDisplay:10.37,2013-05-08 08:46:00,
2013-05-08 03:51:00,59.7,52.5,29.86,SSW,193,0.0,0.0,77,0.00,CLR,,0.00,WeatherDisplay:10.37,2013-05-08 08:51:00,
2013-05-08 03:56:00,59.5,52.3,29.86,SSW,193,1.0,0.0,77,0.00,CLR,,0.00,WeatherDisplay:10.37,2013-05-08 08:56:00,
2013-05-08 04:01:00,59.5,52.6,29.86,SSW,193,0.0,0.0,78,0.00,CLR,,0.00,WeatherDisplay:10.37,2013-05-08 09:01:00,
2013-05-08 04:06:00,59.3,52.8,29.86,SSW,193,0.0,0.0,79,0.00,CLR,,0.00,WeatherDisplay:10.37,2013-05-08 09:06:00,
2013-05-08 04:11:00,59.0,52.5,29.86,SSW,193,0.0,0.0,79,0.00,CLR,,0.00,WeatherDisplay:10.37,2013-05-08 09:11:00,
2013-05-08 04:16:00,59.0,52.5,29.86,SSW,192,0.0,0.0,79,0.00,CLR,,0.00,WeatherDisplay:10.37,2013-05-08 09:16:00,
2013-05-08 04:21:00,59.0,52.8,29.86,SSW,193,0.0,0.0,80,0.00,CLR,,0.00,WeatherDisplay:10.37,2013-05-08 09:21:00,
2013-05-08 04:26:00,58.6,52.1,29.86,SSW,193,0.0,0.0,79,0.00,CLR,,0.00,WeatherDisplay:10.37,2013-05-08 09:26:00,
2013-05-08 04:31:00,58.6,52.1,29.86,SSW,193,0.0,0.0,79,0.00,CLR,,0.00,WeatherDisplay:10.37,2013-05-08 09:31:00,
2013-05-08 04:36:00,58.6,52.1,29.86,SSW,193,0.0,0.0,79,0.00,CLR,,0.00,WeatherDisplay:10.37,2013-05-08 09:36:00,
2013-05-08 04:41:00,58.6,52.1,29.85,SSW,192,0.0,0.0,79,0.00,CLR,,0.00,WeatherDisplay:10.37,2013-05-08 09:41:00,
2013-05-08 04:46:00,58.6,52.4,29.86,SSW,192,1.2,0.0,80,0.00,CLR,,0.00,WeatherDisplay:10.37,2013-05-08 09:46:00,
2013-05-08 04:51:00,58.5,52.7,29.86,SSW,193,0.0,0.0,81,0.00,CLR,,0.00,WeatherDisplay:10.37,2013-05-08 09:51:00,
2013-05-08 04:56:00,58.4,52.6,29.86,SSW,193,0.0,0.0,81,0.00,CLR,,0.00,WeatherDisplay:10.37,2013-05-08 09:56:00,
2013-05-08 05:01:00,58.3,52.5,29.87,SSW,192,1.2,0.0,81,0.00,CLR,,0.00,WeatherDisplay:10.37,2013-05-08 10:01:00,
2013-05-08 05:06:00,58.3,52.5,29.87,SSW,193,2.3,2.3,81,0.00,CLR,,0.00,WeatherDisplay:10.37,2013-05-08 10:06:00,
2013-05-08 05:11:00,58.4,52.6,29.87,SSW,193,2.3,2.3,81,0.00,CLR,,0.00,WeatherDisplay:10.37,2013-05-08 10:11:00,
2013-05-08 05:16:00,58.6,52.4,29.88,SSW,192,2.3,2.3,80,0.00,CLR,,0.00,WeatherDisplay:10.37,2013-05-08 10:16:00,
2013-05-08 05:21:00,58.6,52.8,29.88,SSW,192,0.0,0.0,81,0.00,CLR,,0.00,WeatherDisplay:10.37,2013-05-08 10:21:00,
2013-05-08 05:26:00,58.6,53.1,29.88,SSW,193,0.0,0.0,82,0.00,CLR,,0.00,WeatherDisplay:10.37,2013-05-08 10:26:00,
2013-05-08 05:31:00,58.4,52.9,29.88,SSW,193,0.0,0.0,82,0.00,CLR,,0.00,WeatherDisplay:10.37,2013-05-08 10:31:00,
2013-05-08 05:36:00,58.2,53.1,29.88,SSW,192,0.0,0.0,83,0.00,CLR,,0.00,WeatherDisplay:10.37,2013-05-08 10:36:00,
2013-05-08 05:41:00,58.1,53.3,29.88,SSW,193,0.0,0.0,84,0.00,CLR,,0.00,WeatherDisplay:10.37,2013-05-08 10:41:00,
2013-05-08 05:46:00,58.1,53.3,29.88,SSW,193,1.2,1.2,84,0.00,CLR,,0.00,WeatherDisplay:10.37,2013-05-08 10:46:00,
2013-05-08 05:51:00,58.1,53.6,29.88,SSW,192,2.3,0.0,85,0.00,CLR,,0.00,WeatherDisplay:10.37,2013-05-08 10:51:00,
2013-05-08 05:56:00,58.1,53.6,29.88,SSW,193,2.3,0.0,85,0.00,CLR,,0.00,WeatherDisplay:10.37,2013-05-08 10:56:00,
2013-05-08 06:02:00,58.1,53.6,29.88,SSW,192,0.0,0.0,85,0.00,CLR,,0.00,WeatherDisplay:10.37,2013-05-08 11:02:00,
2013-05-08 06:07:00,58.1,53.9,29.88,SSW,192,1.2,1.2,86,0.00,CLR,,0.00,WeatherDisplay:10.37,2013-05-08 11:07:00,
2013-05-08 06:12:00,58.1,53.9,29.88,SSW,193,1.2,0.0,86,0.00,CLR,,0.00,WeatherDisplay:10.37,2013-05-08 11:12:00,
2013-05-08 06:17:00,58.1,54.2,29.88,SSW,193,0.0,0.0,87,0.01,RA,,0.01,WeatherDisplay:10.37,2013-05-08 11:17:00,
2013-05-08 06:22:00,58.0,54.2,29.88,SSW,192,0.0,0.0,87,0.01,RA,,0.01,WeatherDisplay:10.37,2013-05-08 11:22:00,
2013-05-08 06:27:00,57.9,54.4,29.88,SSW,193,0.0,0.0,88,0.01,CLR,,0.01,WeatherDisplay:10.37,2013-05-08 11:27:00,
2013-05-08 06:32:00,57.9,54.7,29.88,SSW,193,0.0,0.0,89,0.01,CLR,,0.01,WeatherDisplay:10.37,2013-05-08 11:32:00,
2013-05-08 06:37:00,57.7,54.5,29.88,SSW,193,0.0,0.0,89,0.02,RA,,0.02,WeatherDisplay:10.37,2013-05-08 11:37:00,
2013-05-08 06:42:00,57.6,54.7,29.88,SSW,192,0.0,0.0,90,0.03,RA,,0.03,WeatherDisplay:10.37,2013-05-08 11:42:00,
2013-05-08 06:47:00,57.5,54.6,29.88,SSW,193,0.0,0.0,90,0.04,RA,,0.04,WeatherDisplay:10.37,2013-05-08 11:47:00,
2013-05-08 06:52:00,57.5,54.6,29.88,SSW,193,0.0,0.0,90,0.04,RA,,0.04,WeatherDisplay:10.37,2013-05-08 11:52:00,
2013-05-08 06:57:00,57.4,54.8,29.88,SSW,193,0.0,0.0,91,0.04,CLR,,0.04,WeatherDisplay:10.37,2013-05-08 11:57:00,
2013-05-08 07:02:00,57.4,54.8,29.88,SSW,192,0.0,0.0,91,0.05,RA,,0.05,WeatherDisplay:10.37,2013-05-08 12:02:00,
2013-05-08 07:07:00,57.4,55.1,29.88,SSW,193,0.0,0.0,92,0.05,RA,,0.05,WeatherDisplay:10.37,2013-05-08 12:07:00,
2013-05-08 07:12:00,57.4,55.1,29.88,SSW,192,0.0,0.0,92,0.05,CLR,,0.05,WeatherDisplay:10.37,2013-05-08 12:12:00,
2013-05-08 07:17:00,57.3,55.0,29.88,SSW,193,0.0,0.0,92,0.04,CLR,,0.05,WeatherDisplay:10.37,2013-05-08 12:17:00,
2013-05-08 07:22:00,57.2,54.9,29.88,SSW,193,0.0,0.0,92,0.04,CLR,,0.05,WeatherDisplay:10.37,2013-05-08 12:22:00,
2013-05-08 07:27:00,57.2,55.2,29.88,SSW,192,0.0,0.0,93,0.04,CLR,,0.05,WeatherDisplay:10.37,2013-05-08 12:27:00,
2013-05-08 07:32:00,57.2,55.2,29.88,SSW,193,0.0,0.0,93,0.04,CLR,,0.05,WeatherDisplay:10.37,2013-05-08 12:32:00,
2013-05-08 07:37:00,57.2,55.2,29.87,SSW,192,0.0,0.0,93,0.03,CLR,,0.05,WeatherDisplay:10.37,2013-05-08 12:37:00,
2013-05-08 07:42:00,57.2,55.2,29.88,SSW,193,0.0,0.0,93,0.02,CLR,,0.05,WeatherDisplay:10.37,2013-05-08 12:42:00,
2013-05-08 07:47:00,57.3,55.6,29.88,SSW,193,0.0,0.0,94,0.01,CLR,,0.05,WeatherDisplay:10.37,2013-05-08 12:47:00,
2013-05-08 07:52:00,57.4,55.7,29.88,SSW,193,0.0,0.0,94,0.01,CLR,,0.05,WeatherDisplay:10.37,2013-05-08 12:52:00,
2013-05-08 07:57:00,57.5,55.8,29.88,SSW,192,0.0,0.0,94,0.01,CLR,,0.05,WeatherDisplay:10.37,2013-05-08 12:57:00,
2013-05-08 08:02:00,57.8,56.1,29.89,SSW,192,0.0,0.0,94,0.00,CLR,,0.05,WeatherDisplay:10.37,2013-05-08 13:02:00,
2013-05-08 08:07:00,58.0,56.3,29.89,SSW,193,0.0,0.0,94,0.00,CLR,,0.05,WeatherDisplay:10.37,2013-05-08 13:07:00,
2013-05-08 08:12:00,58.2,56.5,29.89,SSW,193,1.2,0.0,94,0.00,CLR,,0.05,WeatherDisplay:10.37,2013-05-08 13:12:00,
2013-05-08 08:17:00,58.5,56.8,29.89,SSW,192,2.3,2.3,94,0.00,CLR,,0.05,WeatherDisplay:10.37,2013-05-08 13:17:00,
2013-05-08 08:22:00,58.6,56.9,29.88,SSW,193,0.0,0.0,94,0.00,CLR,,0.05,WeatherDisplay:10.37,2013-05-08 13:22:00,
2013-05-08 08:27:00,58.7,57.3,29.89,SSW,192,0.0,0.0,95,0.00,CLR,,0.05,WeatherDisplay:10.37,2013-05-08 13:27:00,
2013-05-08 08:32:00,58.9,57.5,29.89,SSW,192,0.0,0.0,95,0.00,CLR,,0.05,WeatherDisplay:10.37,2013-05-08 13:32:00,
2013-05-08 08:37:00,59.0,57.6,29.89,SSW,193,0.0,0.0,95,0.00,CLR,,0.05,WeatherDisplay:10.37,2013-05-08 13:37:00,
2013-05-08 08:42:00,59.0,57.6,29.90,SSW,193,0.0,0.0,95,0.00,CLR,,0.05,WeatherDisplay:10.37,2013-05-08 13:42:00,
2013-05-08 08:47:00,59.1,57.7,29.90,SSW,192,0.0,0.0,95,0.00,CLR,,0.05,WeatherDisplay:10.37,2013-05-08 13:47:00,
2013-05-08 08:52:00,59.3,57.9,29.90,SSW,193,2.3,2.3,95,0.00,CLR,,0.05,WeatherDisplay:10.37,2013-05-08 13:52:00,
2013-05-08 08:57:00,59.3,57.9,29.90,SSW,192,1.2,1.2,95,0.00,CLR,,0.05,WeatherDisplay:10.37,2013-05-08 13:57:00,
2013-05-08 09:02:00,59.4,58.0,29.90,SSW,193,2.3,2.3,95,0.00,CLR,,0.05,WeatherDisplay:10.37,2013-05-08 14:02:00,
2013-05-08 09:07:00,59.5,58.1,29.90,SSW,193,0.0,0.0,95,0.00,CLR,,0.05,WeatherDisplay:10.37,2013-05-08 14:07:00,
2013-05-08 09:12:00,59.8,58.4,29.90,SSW,193,1.2,1.2,95,0.00,CLR,,0.05,WeatherDisplay:10.37,2013-05-08 14:12:00,
2013-05-08 09:17:00,60.2,58.8,29.90,SSW,192,0.0,0.0,95,0.00,CLR,,0.05,WeatherDisplay:10.37,2013-05-08 14:17:00,
2013-05-08 09:22:00,60.5,59.1,29.90,SSW,192,2.0,2.0,95,0.00,CLR,,0.05,WeatherDisplay:10.37,2013-05-08 14:22:00,
2013-05-08 09:27:00,60.7,59.3,29.90,SSW,193,1.2,1.2,95,0.00,CLR,,0.05,WeatherDisplay:10.37,2013-05-08 14:27:00,
2013-05-08 09:32:00,60.9,59.2,29.90,SSW,193,3.5,3.5,94,0.00,CLR,,0.05,WeatherDisplay:10.37,2013-05-08 14:32:00,
2013-05-08 09:37:00,61.1,59.1,29.90,SSW,193,3.5,3.5,93,0.00,CLR,,0.05,WeatherDisplay:10.37,2013-05-08 14:37:00,
2013-05-08 09:42:00,61.4,59.1,29.90,SSW,193,3.5,3.5,92,0.00,CLR,,0.05,WeatherDisplay:10.37,2013-05-08 14:42:00,
2013-05-08 09:47:00,61.7,59.0,29.89,SSW,193,6.0,6.0,91,0.00,CLR,,0.05,WeatherDisplay:10.37,2013-05-08 14:47:00,
2013-05-08 09:52:00,62.0,58.7,29.89,SSW,193,5.8,5.8,89,0.00,CLR,,0.05,WeatherDisplay:10.37,2013-05-08 14:52:00,
2013-05-08 09:57:00,62.3,58.7,29.89,SSW,193,6.9,6.9,88,0.00,CLR,,0.05,WeatherDisplay:10.37,2013-05-08 14:57:00,
2013-05-08 10:02:00,62.5,58.6,29.89,SSW,192,8.0,8.0,87,0.00,CLR,,0.05,WeatherDisplay:10.37,2013-05-08 15:02:00,
2013-05-08 10:07:00,62.7,58.1,29.89,South,187,8.1,8.1,85,0.00,CLR,,0.05,WeatherDisplay:10.37,2013-05-08 15:07:00,
2013-05-08 10:12:00,62.9,58.0,29.89,South,187,5.8,5.8,84,0.00,CLR,,0.05,WeatherDisplay:10.37,2013-05-08 15:12:00,
2013-05-08 10:17:00,63.0,57.8,29.89,South,184,10.0,10.0,83,0.00,CLR,,0.05,WeatherDisplay:10.37,2013-05-08 15:17:00,
2013-05-08 10:22:00,63.0,57.4,29.89,South,182,8.1,8.1,82,0.00,CLR,,0.05,WeatherDisplay:10.37,2013-05-08 15:22:00,
2013-05-08 10:27:00,63.1,57.5,29.89,South,183,6.9,6.9,82,0.00,CLR,,0.05,WeatherDisplay:10.37,2013-05-08 15:27:00,
2013-05-08 10:32:00,63.3,57.4,29.89,South,187,10.4,10.4,81,0.00,CLR,,0.05,WeatherDisplay:10.37,2013-05-08 15:32:00,
2013-05-08 10:37:00,63.6,57.7,29.88,South,182,15.0,15.0,81,0.00,CLR,,0.05,WeatherDisplay:10.37,2013-05-08 15:37:00,
2013-05-08 10:42:00,63.9,57.6,29.89,South,180,9.2,9.2,80,0.00,CLR,,0.05,WeatherDisplay:10.37,2013-05-08 15:42:00,
2013-05-08 10:47:00,64.1,57.5,29.89,South,180,11.5,11.5,79,0.00,CLR,,0.05,WeatherDisplay:10.37,2013-05-08 15:47:00,
2013-05-08 10:52:00,64.2,57.5,29.89,South,178,3.5,3.5,79,0.00,CLR,,0.05,WeatherDisplay:10.37,2013-05-08 15:52:00,
2013-05-08 10:57:00,64.3,57.3,29.89,South,181,15.0,15.0,78,0.00,CLR,,0.05,WeatherDisplay:10.37,2013-05-08 15:57:00,
2013-05-08 11:02:00,64.3,57.3,29.89,South,188,11.5,11.5,78,0.00,CLR,,0.05,WeatherDisplay:10.37,2013-05-08 16:02:00,
2013-05-08 11:07:00,64.3,57.3,29.89,South,175,11.5,11.5,78,0.00,CLR,,0.05,WeatherDisplay:10.37,2013-05-08 16:07:00,
2013-05-08 11:12:00,64.2,57.2,29.89,South,175,5.8,5.8,78,0.00,CLR,,0.05,WeatherDisplay:10.37,2013-05-08 16:12:00,
2013-05-08 11:17:00,64.4,57.4,29.89,South,177,12.7,12.7,78,0.00,CLR,,0.05,WeatherDisplay:10.37,2013-05-08 16:17:00,
2013-05-08 11:22:00,64.3,57.3,29.89,South,175,5.8,5.8,78,0.00,CLR,,0.05,WeatherDisplay:10.37,2013-05-08 16:22:00,
2013-05-08 11:27:00,64.4,57.4,29.88,South,175,5.0,5.0,78,0.00,CLR,,0.05,WeatherDisplay:10.37,2013-05-08 16:27:00,
2013-05-08 11:32:00,64.4,57.4,29.88,South,170,5.8,5.8,78,0.00,CLR,,0.05,WeatherDisplay:10.37,2013-05-08 16:32:00,
2013-05-08 11:37:00,64.3,57.3,29.88,SSE,167,6.9,6.9,78,0.00,CLR,,0.05,WeatherDisplay:10.37,2013-05-08 16:37:00,
2013-05-08 11:42:00,64.3,57.6,29.88,South,183,9.2,9.2,79,0.00,CLR,,0.05,WeatherDisplay:10.37,2013-05-08 16:42:00,
2013-05-08 11:47:00,64.2,57.2,29.87,SSE,168,15.0,15.0,78,0.00,CLR,,0.05,WeatherDisplay:10.37,2013-05-08 16:47:00,
2013-05-08 11:52:00,64.3,57.3,29.87,SE,138,10.4,10.4,78,0.00,CLR,,0.05,WeatherDisplay:10.37,2013-05-08 16:52:00,
2013-05-08 11:57:00,64.5,57.5,29.87,SSE,165,10.4,10.4,78,0.00,CLR,,0.05,WeatherDisplay:10.37,2013-05-08 16:57:00,
2013-05-08 12:02:00,64.9,57.9,29.87,South,169,13.8,13.8,78,0.00,CLR,,0.05,WeatherDisplay:10.37,2013-05-08 17:02:00,
2013-05-08 12:07:00,64.9,57.9,29.87,SSE,167,5.8,5.8,78,0.00,CLR,,0.05,WeatherDisplay:10.37,2013-05-08 17:07:00,
2013-05-08 12:12:00,65.0,57.6,29.86,South,173,5.8,5.8,77,0.00,CLR,,0.05,WeatherDisplay:10.37,2013-05-08 17:12:00,
2013-05-08 12:17:00,65.1,57.7,29.86,South,175,11.5,11.5,77,0.00,CLR,,0.05,WeatherDisplay:10.37,2013-05-08 17:17:00,
2013-05-08 12:22:00,65.3,57.9,29.86,SSE,154,4.6,4.6,77,0.00,CLR,,0.05,WeatherDisplay:10.37,2013-05-08 17:22:00,
2013-05-08 12:27:00,66.1,58.3,29.85,SE,136,15.0,15.0,76,0.00,CLR,,0.05,WeatherDisplay:10.37,2013-05-08 17:27:00,
2013-05-08 12:32:00,66.8,59.0,29.85,SSE,162,9.2,9.2,76,0.00,CLR,,0.05,WeatherDisplay:10.37,2013-05-08 17:32:00,
2013-05-08 12:37:00,67.6,58.6,29.85,SE,134,16.1,16.1,73,0.00,CLR,,0.05,WeatherDisplay:10.37,2013-05-08 17:37:00,
2013-05-08 12:42:00,67.7,59.1,29.85,SSW,192,25.0,25.0,74,0.00,CLR,,0.05,WeatherDisplay:10.37,2013-05-08 17:42:00,
2013-05-08 12:47:00,67.9,58.5,29.85,South,191,14.0,14.0,72,0.00,CLR,,0.05,WeatherDisplay:10.37,2013-05-08 17:47:00,
2013-05-08 12:52:00,68.1,57.9,29.85,South,184,17.3,17.3,70,0.00,CLR,,0.05,WeatherDisplay:10.37,2013-05-08 17:52:00,
2013-05-08 12:57:00,68.2,57.6,29.85,South,190,12.7,12.7,69,0.00,CLR,,0.05,WeatherDisplay:10.37,2013-05-08 17:57:00,
2013-05-08 13:02:00,68.0,58.2,29.84,SE,130,8.1,8.1,71,0.00,CLR,,0.05,WeatherDisplay:10.37,2013-05-08 18:02:00,
2013-05-08 13:08:00,68.0,57.4,29.85,South,187,11.0,11.0,69,0.00,CLR,,0.05,WeatherDisplay:10.37,2013-05-08 18:08:00,
2013-05-08 13:13:00,67.8,57.3,29.85,South,180,16.1,16.1,69,0.00,CLR,,0.05,WeatherDisplay:10.37,2013-05-08 18:13:00,
2013-05-08 13:18:00,67.7,57.2,29.85,SSE,159,6.9,6.9,69,0.00,CLR,,0.05,WeatherDisplay:10.37,2013-05-08 18:18:00,
2013-05-08 13:23:00,67.9,57.4,29.85,South,175,7.0,7.0,69,0.00,CLR,,0.05,WeatherDisplay:10.37,2013-05-08 18:23:00,
2013-05-08 13:28:00,68.6,58.0,29.85,South,186,6.9,6.9,69,0.00,CLR,,0.05,WeatherDisplay:10.37,2013-05-08 18:28:00,
2013-05-08 13:33:00,68.9,57.5,29.85,SSE,156,13.8,13.8,67,0.00,CLR,,0.05,WeatherDisplay:10.37,2013-05-08 18:33:00,
2013-05-08 13:38:00,69.2,57.8,29.85,South,184,6.9,6.9,67,0.00,CLR,,0.05,WeatherDisplay:10.37,2013-05-08 18:38:00,
2013-05-08 13:43:00,69.9,58.0,29.84,SSW,192,13.8,13.8,66,0.00,CLR,,0.05,WeatherDisplay:10.37,2013-05-08 18:43:00,
2013-05-08 13:48:00,70.3,58.8,29.84,South,172,7.0,7.0,67,0.00,CLR,,0.05,WeatherDisplay:10.37,2013-05-08 18:48:00,
2013-05-08 13:53:00,70.8,58.4,29.84,SSE,155,13.8,13.8,65,0.00,CLR,,0.05,WeatherDisplay:10.37,2013-05-08 18:53:00,
2013-05-08 13:58:00,71.3,58.5,29.84,SSE,149,12.7,12.7,64,0.00,CLR,,0.05,WeatherDisplay:10.37,2013-05-08 18:58:00,
2013-05-08 14:03:00,71.1,57.9,29.84,South,172,10.4,10.4,63,0.00,CLR,,0.05,WeatherDisplay:10.37,2013-05-08 19:03:00,
2013-05-08 14:08:00,70.6,57.4,29.84,SSE,160,6.9,6.9,63,0.00,CLR,,0.05,WeatherDisplay:10.37,2013-05-08 19:08:00,
2013-05-08 14:13:00,70.7,57.5,29.84,South,189,12.7,12.7,63,0.00,CLR,,0.05,WeatherDisplay:10.37,2013-05-08 19:13:00,
2013-05-08 14:18:00,71.0,57.8,29.84,ESE,109,10.4,10.4,63,0.00,CLR,,0.05,WeatherDisplay:10.37,2013-05-08 19:18:00,
2013-05-08 14:23:00,71.5,58.2,29.84,SE,131,5.8,5.8,63,0.00,CLR,,0.05,WeatherDisplay:10.37,2013-05-08 19:23:00,
2013-05-08 14:28:00,71.9,58.6,29.84,SE,141,13.0,13.0,63,0.00,CLR,,0.05,WeatherDisplay:10.37,2013-05-08 19:28:00,
2013-05-08 14:33:00,71.9,58.2,29.84,SE,144,10.4,10.4,62,0.00,CLR,,0.05,WeatherDisplay:10.37,2013-05-08 19:33:00,
2013-05-08 14:38:00,72.2,58.9,29.84,SE,132,5.0,5.0,63,0.00,CLR,,0.05,WeatherDisplay:10.37,2013-05-08 19:38:00,
2013-05-08 14:43:00,73.0,60.1,29.84,South,190,6.9,6.9,64,0.00,CLR,,0.05,WeatherDisplay:10.37,2013-05-08 19:43:00,
2013-05-08 14:48:00,73.6,58.9,29.84,South,176,12.7,12.7,60,0.00,CLR,,0.05,WeatherDisplay:10.37,2013-05-08 19:48:00,
2013-05-08 14:53:00,73.1,58.4,29.84,ESE,107,11.5,11.5,60,0.00,CLR,,0.05,WeatherDisplay:10.37,2013-05-08 19:53:00,
2013-05-08 14:58:00,73.1,58.8,29.84,ESE,117,13.8,13.8,61,0.00,CLR,,0.05,WeatherDisplay:10.37,2013-05-08 19:58:00,
2013-05-08 15:03:00,73.6,59.8,29.83,East,92,12.0,12.0,62,0.00,CLR,,0.05,WeatherDisplay:10.37,2013-05-08 20:03:00,
2013-05-08 15:08:00,73.5,58.8,29.83,SSE,157,9.0,9.0,60,0.00,CLR,,0.05,WeatherDisplay:10.37,2013-05-08 20:08:00,
2013-05-08 15:13:00,72.7,58.9,29.83,SSE,164,14.0,14.0,62,0.00,CLR,,0.05,WeatherDisplay:10.37,2013-05-08 20:13:00,
2013-05-08 15:18:00,72.6,58.8,29.83,SSE,152,16.1,16.1,62,0.00,CLR,,0.05,WeatherDisplay:10.37,2013-05-08 20:18:00,
2013-05-08 15:23:00,73.1,59.8,29.83,SE,140,5.8,5.8,63,0.00,CLR,,0.05,WeatherDisplay:10.37,2013-05-08 20:23:00,
2013-05-08 15:28:00,73.7,59.4,29.82,SE,142,15.0,15.0,61,0.00,CLR,,0.05,WeatherDisplay:10.37,2013-05-08 20:28:00,
2013-05-08 15:33:00,73.8,59.5,29.82,SE,128,11.5,11.5,61,0.00,CLR,,0.05,WeatherDisplay:10.37,2013-05-08 20:33:00,
2013-05-08 15:38:00,74.1,59.3,29.82,SSW,205,15.0,15.0,60,0.00,CLR,,0.05,WeatherDisplay:10.37,2013-05-08 20:38:00,
2013-05-08 15:43:00,73.7,59.4,29.81,South,181,10.4,10.4,61,0.00,CLR,,0.05,WeatherDisplay:10.37,2013-05-08 20:43:00,
2013-05-08 15:48:00,74.0,59.7,29.81,SSW,196,15.0,15.0,61,0.00,CLR,,0.05,WeatherDisplay:10.37,2013-05-08 20:48:00,
2013-05-08 15:53:00,73.7,58.9,29.81,South,186,12.7,12.7,60,0.00,CLR,,0.05,WeatherDisplay:10.37,2013-05-08 20:53:00,
2013-05-08 15:58:00,73.5,59.7,29.81,SE,127,9.2,9.2,62,0.00,CLR,,0.05,WeatherDisplay:10.37,2013-05-08 20:58:00,
2013-05-08 16:03:00,73.6,59.8,29.81,SE,134,11.5,11.5,62,0.00,CLR,,0.05,WeatherDisplay:10.37,2013-05-08 21:03:00,
2013-05-08 16:08:00,73.4,59.1,29.80,SE,130,18.4,18.4,61,0.00,CLR,,0.05,WeatherDisplay:10.37,2013-05-08 21:08:00,
2013-05-08 16:13:00,73.3,59.5,29.80,South,184,11.5,11.5,62,0.00,CLR,,0.05,WeatherDisplay:10.37,2013-05-08 21:13:00,
2013-05-08 16:18:00,73.0,59.2,29.80,SE,144,9.2,9.2,62,0.00,CLR,,0.05,WeatherDisplay:10.37,2013-05-08 21:18:00,
2013-05-08 16:23:00,73.1,59.8,29.80,SSE,160,11.5,11.5,63,0.00,CLR,,0.05,WeatherDisplay:10.37,2013-05-08 21:23:00,
2013-05-08 16:28:00,73.4,59.1,29.80,SSE,147,10.4,10.4,61,0.00,CLR,,0.05,WeatherDisplay:10.37,2013-05-08 21:28:00,
2013-05-08 16:33:00,73.6,59.3,29.80,SE,129,12.7,12.7,61,0.00,CLR,,0.05,WeatherDisplay:10.37,2013-05-08 21:33:00,
2013-05-08 16:38:00,73.9,59.6,29.80,South,188,11.5,11.5,61,0.00,CLR,,0.05,WeatherDisplay:10.37,2013-05-08 21:38:00,
2013-05-08 16:43:00,74.4,60.1,29.80,SE,133,3.5,3.5,61,0.00,CLR,,0.05,WeatherDisplay:10.37,2013-05-08 21:43:00,
2013-05-08 16:48:00,74.1,59.3,29.80,SE,138,15.0,15.0,60,0.00,CLR,,0.05,WeatherDisplay:10.37,2013-05-08 21:48:00,
2013-05-08 16:53:00,73.7,59.4,29.80,ESE,123,10.4,10.4,61,0.00,CLR,,0.05,WeatherDisplay:10.37,2013-05-08 21:53:00,
2013-05-08 16:58:00,73.5,59.2,29.80,South,172,10.4,10.4,61,0.00,CLR,,0.05,WeatherDisplay:10.37,2013-05-08 21:58:00,
2013-05-08 17:03:00,73.6,59.8,29.80,South,172,10.4,10.4,62,0.00,CLR,,0.05,WeatherDisplay:10.37,2013-05-08 22:03:00,
2013-05-08 17:08:00,73.6,59.8,29.79,SE,145,6.0,6.0,62,0.00,CLR,,0.05,WeatherDisplay:10.37,2013-05-08 22:08:00,
2013-05-08 17:13:00,73.6,59.8,29.79,East,98,13.8,13.8,62,0.00,CLR,,0.05,WeatherDisplay:10.37,2013-05-08 22:13:00,
2013-05-08 17:18:00,73.5,59.7,29.79,SSE,153,12.7,12.7,62,0.00,CLR,,0.05,WeatherDisplay:10.37,2013-05-08 22:18:00,
2013-05-08 17:23:00,73.4,60.0,29.79,South,188,7.0,7.0,63,0.00,CLR,,0.05,WeatherDisplay:10.37,2013-05-08 22:23:00,
2013-05-08 17:28:00,73.3,59.5,29.80,South,180,12.7,12.7,62,0.00,CLR,,0.05,WeatherDisplay:10.37,2013-05-08 22:28:00,
2013-05-08 17:33:00,73.3,59.5,29.80,ESE,121,11.5,11.5,62,0.00,CLR,,0.05,WeatherDisplay:10.37,2013-05-08 22:33:00,
2013-05-08 17:38:00,73.2,59.4,29.80,SSW,196,12.7,12.7,62,0.00,CLR,,0.05,WeatherDisplay:10.37,2013-05-08 22:38:00,
2013-05-08 17:43:00,72.7,59.8,29.80,ESE,122,10.4,10.4,64,0.00,CLR,,0.05,WeatherDisplay:10.37,2013-05-08 22:43:00,
2013-05-08 17:48:00,72.4,59.5,29.80,South,178,8.1,8.1,64,0.00,CLR,,0.05,WeatherDisplay:10.37,2013-05-08 22:48:00,
2013-05-08 17:53:00,72.6,59.7,29.80,SSE,154,9.0,9.0,64,0.00,CLR,,0.05,WeatherDisplay:10.37,2013-05-08 22:53:00,
2013-05-08 17:58:00,72.8,59.9,29.80,SSE,164,5.8,5.8,64,0.00,CLR,,0.05,WeatherDisplay:10.37,2013-05-08 22:58:00,
2013-05-08 18:03:00,72.5,59.6,29.80,SE,144,3.5,3.5,64,0.00,CLR,,0.05,WeatherDisplay:10.37,2013-05-08 23:03:00,
2013-05-08 18:08:00,72.4,59.5,29.80,SSE,152,6.9,6.9,64,0.00,CLR,,0.05,WeatherDisplay:10.37,2013-05-08 23:08:00,
2013-05-08 18:13:00,72.0,59.6,29.80,South,180,9.2,9.2,65,0.00,CLR,,0.05,WeatherDisplay:10.37,2013-05-08 23:13:00,
2013-05-08 18:18:00,71.8,59.4,29.80,South,184,9.2,9.2,65,0.00,CLR,,0.05,WeatherDisplay:10.37,2013-05-08 23:18:00,
2013-05-08 18:23:00,71.6,59.2,29.79,South,171,6.9,6.9,65,0.00,CLR,,0.05,WeatherDisplay:10.37,2013-05-08 23:23:00,
2013-05-08 18:28:00,71.4,59.4,29.79,South,171,4.6,4.6,66,0.00,CLR,,0.05,WeatherDisplay:10.37,2013-05-08 23:28:00,
2013-05-08 18:33:00,71.5,59.5,29.79,SSE,168,7.0,7.0,66,0.00,CLR,,0.05,WeatherDisplay:10.37,2013-05-08 23:33:00,
2013-05-08 18:38:00,71.7,59.7,29.79,South,169,3.5,3.5,66,0.00,CLR,,0.05,WeatherDisplay:10.37,2013-05-08 23:38:00,
2013-05-08 18:43:00,71.6,59.2,29.79,South,173,4.6,4.6,65,0.00,CLR,,0.05,WeatherDisplay:10.37,2013-05-08 23:43:00,
2013-05-08 18:48:00,71.4,59.4,29.79,South,176,10.4,10.4,66,0.00,CLR,,0.05,WeatherDisplay:10.37,2013-05-08 23:48:00,
2013-05-08 18:53:00,71.3,59.4,29.79,South,179,6.9,6.9,66,0.00,CLR,,0.05,WeatherDisplay:10.37,2013-05-08 23:53:00,
2013-05-08 18:58:00,71.2,59.7,29.78,South,172,3.5,3.5,67,0.00,CLR,,0.05,WeatherDisplay:10.37,2013-05-08 23:58:00,
2013-05-08 19:03:00,71.3,59.8,29.79,South,172,5.8,5.8,67,0.00,CLR,,0.05,WeatherDisplay:10.37,2013-05-09 00:03:00,
2013-05-08 19:08:00,71.2,59.7,29.79,South,173,6.9,6.9,67,0.00,CLR,,0.05,WeatherDisplay:10.37,2013-05-09 00:08:00,
2013-05-08 19:13:00,71.0,59.5,29.79,SE,140,5.8,5.8,67,0.00,CLR,,0.05,WeatherDisplay:10.37,2013-05-09 00:13:00,
2013-05-08 19:18:00,70.8,59.7,29.79,SSE,161,5.8,5.8,68,0.00,CLR,,0.05,WeatherDisplay:10.37,2013-05-09 00:18:00,
2013-05-08 19:23:00,70.6,59.5,29.79,SSE,153,5.8,5.8,68,0.00,CLR,,0.05,WeatherDisplay:10.37,2013-05-09 00:23:00,
2013-05-08 19:28:00,70.5,59.4,29.79,SSE,151,5.8,5.8,68,0.00,CLR,,0.05,WeatherDisplay:10.37,2013-05-09 00:28:00,
2013-05-08 19:33:00,70.4,59.7,29.79,SSE,150,5.8,5.8,69,0.00,CLR,,0.05,WeatherDisplay:10.37,2013-05-09 00:33:00,
2013-05-08 19:38:00,70.3,59.6,29.79,SSE,150,3.5,3.5,69,0.00,CLR,,0.05,WeatherDisplay:10.37,2013-05-09 00:38:00,
2013-05-08 19:43:00,70.2,59.6,29.78,SSE,150,3.5,3.5,69,0.00,CLR,,0.05,WeatherDisplay:10.37,2013-05-09 00:43:00,
2013-05-08 19:48:00,70.2,59.6,29.78,SSE,150,3.5,3.5,69,0.00,CLR,,0.05,WeatherDisplay:10.37,2013-05-09 00:48:00,
2013-05-08 19:53:00,70.1,59.5,29.78,SSE,150,4.6,0.0,69,0.00,CLR,,0.05,WeatherDisplay:10.37,2013-05-09 00:53:00,
2013-05-08 19:58:00,69.9,59.3,29.78,SSE,150,4.0,4.0,69,0.00,CLR,,0.05,WeatherDisplay:10.37,2013-05-09 00:58:00,
2013-05-08 20:03:00,69.9,59.3,29.78,SSE,150,3.5,3.5,69,0.00,CLR,,0.05,WeatherDisplay:10.37,2013-05-09 01:03:00,
2013-05-08 20:08:00,69.8,59.2,29.77,SE,146,3.5,3.5,69,0.00,CLR,,0.05,WeatherDisplay:10.37,2013-05-09 01:08:00,
2013-05-08 20:13:00,69.7,59.1,29.77,SSE,147,5.8,5.8,69,0.00,CLR,,0.05,WeatherDisplay:10.37,2013-05-09 01:13:00,
2013-05-08 20:18:00,69.7,59.1,29.78,SSE,147,9.2,9.2,69,0.00,CLR,,0.05,WeatherDisplay:10.37,2013-05-09 01:18:00,
2013-05-08 20:23:00,69.7,59.1,29.78,SE,146,3.5,3.5,69,0.00,CLR,,0.05,WeatherDisplay:10.37,2013-05-09 01:23:00,
2013-05-08 20:28:00,69.6,59.0,29.77,SE,146,4.6,4.6,69,0.00,CLR,,0.05,WeatherDisplay:10.37,2013-05-09 01:28:00,
2013-05-08 20:33:00,69.5,59.3,29.78,SE,146,3.5,3.5,70,0.00,CLR,,0.05,WeatherDisplay:10.37,2013-05-09 01:33:00,
2013-05-08 20:38:00,69.5,59.3,29.78,SE,146,2.3,2.3,70,0.00,CLR,,0.05,WeatherDisplay:10.37,2013-05-09 01:38:00,
2013-05-08 20:43:00,69.5,58.9,29.78,SE,146,6.9,6.9,69,0.00,CLR,,0.05,WeatherDisplay:10.37,2013-05-09 01:43:00,
2013-05-08 20:48:00,69.4,59.2,29.78,SE,146,3.5,3.5,70,0.00,CLR,,0.05,WeatherDisplay:10.37,2013-05-09 01:48:00,
2013-05-08 20:53:00,69.3,59.1,29.78,SE,146,3.5,3.5,70,0.00,CLR,,0.05,WeatherDisplay:10.37,2013-05-09 01:53:00,
2013-05-08 20:58:00,69.3,59.1,29.78,SE,144,5.8,5.8,70,0.00,CLR,,0.05,WeatherDisplay:10.37,2013-05-09 01:58:00,
2013-05-08 21:03:00,69.3,59.1,29.78,SSE,159,3.5,3.5,70,0.00,CLR,,0.05,WeatherDisplay:10.37,2013-05-09 02:03:00,
2013-05-08 21:08:00,69.3,59.1,29.78,SSE,153,7.0,7.0,70,0.00,CLR,,0.05,WeatherDisplay:10.37,2013-05-09 02:08:00,
2013-05-08 21:13:00,69.2,59.0,29.78,SSE,153,4.6,4.6,70,0.00,CLR,,0.05,WeatherDisplay:10.37,2013-05-09 02:13:00,
2013-05-08 21:18:00,69.2,59.0,29.78,SE,144,11.5,11.5,70,0.00,CLR,,0.05,WeatherDisplay:10.37,2013-05-09 02:18:00,
2013-05-08 21:23:00,69.1,58.9,29.78,SE,144,3.5,3.5,70,0.00,CLR,,0.05,WeatherDisplay:10.37,2013-05-09 02:23:00,
2013-05-08 21:28:00,69.0,58.8,29.78,SE,142,7.0,7.0,70,0.00,CLR,,0.05,WeatherDisplay:10.37,2013-05-09 02:28:00,
2013-05-08 21:33:00,68.9,58.7,29.78,SE,142,8.1,8.1,70,0.00,CLR,,0.05,WeatherDisplay:10.37,2013-05-09 02:33:00,
2013-05-08 21:38:00,68.9,58.7,29.78,SE,134,5.8,5.8,70,0.00,CLR,,0.05,WeatherDisplay:10.37,2013-05-09 02:38:00,
2013-05-08 21:43:00,68.9,58.7,29.78,SE,136,4.6,4.6,70,0.00,CLR,,0.05,WeatherDisplay:10.37,2013-05-09 02:43:00,
2013-05-08 21:48:00,68.8,58.2,29.78,SE,134,6.9,6.9,69,0.00,CLR,,0.05,WeatherDisplay:10.37,2013-05-09 02:48:00,
2013-05-08 21:53:00,68.8,58.2,29.78,SE,135,5.8,5.8,69,0.00,CLR,,0.05,WeatherDisplay:10.37,2013-05-09 02:53:00,
2013-05-08 21:58:00,68.7,58.1,29.78,SE,134,2.3,2.3,69,0.00,CLR,,0.05,WeatherDisplay:10.37,2013-05-09 02:58:00,
2013-05-08 22:03:00,68.6,58.0,29.77,SE,135,9.2,9.2,69,0.00,CLR,,0.05,WeatherDisplay:10.37,2013-05-09 03:03:00,
2013-05-08 22:08:00,68.5,58.3,29.77,SE,134,3.0,3.0,70,0.00,CLR,,0.05,WeatherDisplay:10.37,2013-05-09 03:08:00,
2013-05-08 22:13:00,68.3,58.5,29.77,SE,134,4.0,4.0,71,0.00,CLR,,0.05,WeatherDisplay:10.37,2013-05-09 03:13:00,
2013-05-08 22:18:00,68.0,59.0,29.77,SE,135,7.0,7.0,73,0.00,CLR,,0.05,WeatherDisplay:10.37,2013-05-09 03:18:00,
2013-05-08 22:23:00,67.7,58.7,29.77,SE,136,3.5,3.5,73,0.00,CLR,,0.05,WeatherDisplay:10.37,2013-05-09 03:23:00,
2013-05-08 22:28:00,67.6,58.6,29.78,SE,136,2.3,2.3,73,0.00,CLR,,0.05,WeatherDisplay:10.37,2013-05-09 03:28:00,
2013-05-08 22:33:00,67.5,58.9,29.78,SE,136,2.3,2.3,74,0.00,CLR,,0.05,WeatherDisplay:10.37,2013-05-09 03:33:00,
2013-05-08 22:38:00,67.2,59.4,29.79,SE,136,5.8,5.8,76,0.01,RA,,0.06,WeatherDisplay:10.37,2013-05-09 03:38:00,
2013-05-08 22:43:00,66.6,59.2,29.79,SE,136,4.6,4.6,77,0.01,RA,,0.06,WeatherDisplay:10.37,2013-05-09 03:43:00,
2013-05-08 22:48:00,65.7,59.4,29.80,SE,136,4.6,4.6,80,0.02,RA,,0.07,WeatherDisplay:10.37,2013-05-09 03:48:00,
2013-05-08 22:53:00,65.2,59.6,29.80,SE,136,3.5,3.5,82,0.03,RA,,0.08,WeatherDisplay:10.37,2013-05-09 03:53:00,
2013-05-08 22:58:00,64.9,59.9,29.81,SE,136,0.0,0.0,84,0.03,RA,,0.08,WeatherDisplay:10.37,2013-05-09 03:58:00,
2013-05-08 23:01:00,64.8,59.5,29.81,SE,136,3.5,3.5,83,0.03,,,0.08,WeatherDisplay:10.37,2013-05-09 04:01:00,
2013-05-08 23:06:00,64.5,59.9,29.81,SE,136,1.2,1.2,85,0.04,RA,,0.09,WeatherDisplay:10.37,2013-05-09 04:06:00,
2013-05-08 23:11:00,64.3,60.3,29.82,SE,136,2.3,2.3,87,0.04,RA,,0.09,WeatherDisplay:10.37,2013-05-09 04:11:00,
2013-05-08 23:16:00,63.9,60.0,29.81,SE,136,2.3,2.3,87,0.04,,,0.09,WeatherDisplay:10.37,2013-05-09 04:16:00,
2013-05-08 23:21:00,63.6,60.0,29.80,SE,136,0.0,0.0,88,0.04,CLR,,0.09,WeatherDisplay:10.37,2013-05-09 04:21:00,
2013-05-08 23:26:00,63.2,59.9,29.79,SE,136,0.0,0.0,89,0.04,CLR,,0.09,WeatherDisplay:10.37,2013-05-09 04:26:00,
2013-05-08 23:31:00,63.0,59.7,29.79,SE,136,0.0,0.0,89,0.04,CLR,,0.09,WeatherDisplay:10.37,2013-05-09 04:31:00,
2013-05-08 23:36:00,62.8,59.8,29.79,SE,136,0.0,0.0,90,0.04,CLR,,0.09,WeatherDisplay:10.37,2013-05-09 04:36:00,
2013-05-08 23:41:00,62.7,60.0,29.79,SE,136,0.0,0.0,91,0.03,CLR,,0.09,WeatherDisplay:10.37,2013-05-09 04:41:00,
2013-05-08 23:46:00,62.7,60.0,29.79,SE,136,1.2,1.2,91,0.02,CLR,,0.09,WeatherDisplay:10.37,2013-05-09 04:46:00,
2013-05-08 23:51:00,62.6,59.9,29.78,SE,136,0.0,0.0,91,0.01,CLR,,0.09,WeatherDisplay:10.37,2013-05-09 04:51:00,
2013-05-08 23:56:00,62.5,59.8,29.79,SE,136,0.0,0.0,91,0.01,CLR,,0.09,WeatherDisplay:10.37,2013-05-09 04:56:00,